Grover Hill, Ohio
Current Conditions -  °F | °C
As of 9:53 PM on Friday 31 Oct 2014 (Local Time) from KDFI Reporting Station
Light Snow Light Snow  
Wind Chill: 25°   Ceiling: 2700
Heat Index: 36°   Visibility: 5mi
Dew Point: 28°   Wind: 21mph
Humidity: 73%   Direction: 350°N
Pressure: 30.1"   Gusts: 29mph
Location:  41.02°N, 84.48°W
Report Text: KDFI 010153Z AUTO 35018G25KT 5SM -SN OVC027 02/M02 A3010 RMK AO2 PK WND 01030/0132 SNB36 SLP198 P0000 T00221022 FZRANO $
Loading
Personal Weather Stations






























Interactive Weather Map
Tropical Storm Tracking
New forecast layout! Learn more

10-Day Weather Forecast

Advertisements
Track Severe Weather on mobile